2019 The Corvallis Clinic Run For The Health Of It



Division Results for the F0113

Sort by  Gun Time Net Time
Div Place Place Bib First Last Sex Age Div City State Gun
Time
Net
Time
Pace Sex
Place
Sex
Total
Div
Total
1 27 155 Bekah Wagner F 13 F0113 Corvallis OR 28:59.0 28:58.0 9:20 6 109 16
2 59 55 Lila Herrera F 11 F0113 Lebanon OR 38:12.2 38:08.0 12:17 24 109 16
3 67 150 Ahnika Tryon F 13 F0113 Philomath OR 40:46.1 40:38.6 13:05 30 109 16
4 68 129 Clara Stanley F 13 F0113 Philomath OR 40:46.1 40:39.0 13:06 31 109 16
5 75 128 Alyssa Stanley F 8 F0113 Philomath OR 42:03.7 41:51.3 13:29 36 109 16
6 79 131 Nora Stanley F 11 F0113 Philomath OR 43:32.2 43:20.7 13:58 39 109 16
7 80 134 Cadence Stevens F 11 F0113 Corvallis OR 44:02.8 43:26.1 13:59 40 109 16
8 93 71 Hallie Koehler F 13 F0113 Albany OR 47:06.5 46:54.7 15:06 50 109 16
9 107 26 Elianna Chavez F 8 F0113 Silverton OR 50:48.9 49:59.9 16:06 61 109 16
10 123 142 Elayna Thomas F 8 F0113 Tangent OR 53:54.0 53:50.5 17:20 72 109 16
11 133 112 Rebecca Raske F 12 F0113 Tangent OR 57:29.4 57:24.6 18:29 79 109 16
12 147 162 Baylee Williams F 9 F0113 Albany OR 1:01:06.6 1:00:24.3 19:27 86 109 16
13 148 137 Annie Taylor F 8 F0113 Corvallis OR 1:01:19.0 1:00:45.1 19:34 87 109 16
14 150 164 Teagan Williams F 5 F0113 Corvallis OR 1:01:25.2 1:00:59.5 19:38 89 109 16

Division Results for the F1419

Sort by  Gun Time Net Time
Div Place Place Bib First Last Sex Age Div City State Gun
Time
Net
Time
Pace Sex
Place
Sex
Total
Div
Total
1 41 44 Madison Foley F 14 F1419 Philomath OR 33:34.1 33:19.6 10:44 13 109 3
2 142 160 Taylor Westbrook F 19 F1419 Corvallis OR 59:43.7 58:59.6 19:00 84 109 3

Division Results for the F2029

Sort by  Gun Time Net Time
Div Place Place Bib First Last Sex Age Div City State Gun
Time
Net
Time
Pace Sex
Place
Sex
Total
Div
Total
1 18 125 Leah Skeele F 23 F2029 Corvallis OR 27:13.3 26:51.2 8:39 2 109 22
2 50 67 Jamie King F 26 F2029 Corvallis OR 36:25.7 36:16.7 11:41 19 109 22
3 58 165 Kalyn Wilson F 27 F2029 Corvallis OR 38:12.5 38:04.9 12:16 23 109 22
4 63 89 Haley Mills F 26 F2029 Corvallis OR 39:08.9 38:30.1 12:24 28 109 22
5 72 1 Jessica Adams F 26 F2029 Monroe OR 41:03.7 41:03.2 13:13 33 109 22
6 81 152 Chelsea Van Der Zwan F 28 F2029 Philomath OR 44:02.8 43:26.8 14:00 41 109 22
7 82 166 Halee Winburn F 27 F2029 Corvallis OR 44:08.0 43:31.1 14:01 42 109 22
8 83 115 Laura Richwilson F 24 F2029 Eugene OR 44:22.8 44:22.2 14:17 43 109 22
9 92 41 Angela Farrington F 29 F2029 Philomath OR 47:27.5 46:46.9 15:04 49 109 22
10 94 157 Kristi Walker F 28 F2029 Portland OR 47:55.9 47:45.7 15:23 51 109 22
11 99 202 Mayzie Strubhar F 23 F2029 Albany OR 48:52.0 48:36.0 15:39 55 109 22
12 102 106 Becky Peters F 24 F2029 Eugene OR 48:55.7 48:55.7 15:45 57 109 22
13 110 141 July Teal F 24 F2029 Corvallis OR 51:25.6 51:19.3 16:32 63 109 22
14 119 149 Mackenzie Truex F 22 F2029 Lebanon OR 53:27.4 53:07.6 17:06 69 109 22
15 120 62 Kayla Johnson F 26 F2029 Albany OR 54:09.7 53:37.7 17:16 70 109 22
16 124 167 Haley Wright F 27 F2029 Corvallis OR 54:53.6 54:44.1 17:38 73 109 22
17 151 145 Christina Thome F 25 F2029 Albany OR 1:01:26.7 1:01:00.4 19:39 90 109 22
18 152 59 Krystina Jermaczonak F 26 F2029 Lebanon OR 1:01:27.8 1:01:01.2 19:39 91 109 22
19 153 133 Allison Stevens F 21 F2029 Corvallis OR 1:04:13.7 1:03:46.9 20:32 92 109 22

Division Results for the F3039

Sort by  Gun Time Net Time
Div Place Place Bib First Last Sex Age Div City State Gun
Time
Net
Time
Pace Sex
Place
Sex
Total
Div
Total
1 9 12 Nicole Berrigan F 32 F3039 Corvallis OR 23:39.7 23:38.6 7:37 1 109 21
2 23 22 Carly Castaneda F 32 F3039 Albany OR 28:13.4 28:10.4 9:05 3 109 21
3 29 154 Ruth Velez F 37 F3039 Salem OR 29:14.4 29:12.6 9:25 7 109 21
4 32 86 Jennifer Miller F 36 F3039 Philomath OR 31:15.8 31:13.1 10:03 9 109 21
5 47 79 Heather Lueck F 31 F3039 Corvallis OR 35:51.3 35:29.2 11:26 17 109 21
6 55 105 Jessica Olson F 34 F3039 Corvallis OR 37:44.5 37:16.9 12:00 20 109 21
7 57 168 Miriam Zepeda F 37 F3039 Corvallis OR 37:53.7 37:34.7 12:06 22 109 21
8 71 30 Brandy Cherry F 32 F3039 Lebanon OR 41:03.1 41:02.3 13:13 32 109 21
9 73 107 Melissa Pilmer F 38 F3039 Philomath OR 41:29.4 41:29.4 13:22 34 109 21
10 74 36 Justeen Elliott F 31 F3039 Lebanon OR 42:04.2 41:35.4 13:24 35 109 21
11 88 54 Cari Herrera F 39 F3039 Lebanon OR 46:02.7 45:58.8 14:48 46 109 21
12 89 151 Amanda Valerio F 30 F3039 Albany OR 46:35.7 46:21.6 14:56 47 109 21
13 100 75 Jacqueline Leyser F 35 F3039 Philomath OR 48:52.4 48:36.7 15:39 56 109 21
14 105 73 Helen Lee F 35 F3039 Corvallis OR 50:06.9 49:46.4 16:02 60 109 21
15 121 66 Kristina Kimmel F 37 F3039 Tangent OR 53:49.6 53:45.6 17:19 71 109 21
16 132 144 Melissa Thomas F 38 F3039 Tangent OR 57:28.8 57:24.5 18:29 78 109 21
17 135 109 Miriam Powell F 37 F3039 Corvallis OR 58:02.0 57:25.4 18:29 80 109 21
18 136 46 Jen Giles F 34 F3039 Corvallis OR 58:56.4 58:11.2 18:44 81 109 21
19 155 32 Thianna Clark-Williams F 34 F3039 Corvallis OR 1:04:14.5 1:03:48.4 20:33 94 109 21

Division Results for the F4049

Sort by  Gun Time Net Time
Div Place Place Bib First Last Sex Age Div City State Gun
Time
Net
Time
Pace Sex
Place
Sex
Total
Div
Total
1 26 99 Heather Oberfoell F 42 F4049 Albany OR 28:50.3 28:48.4 9:17 5 109 21
2 31 90 Vanessa Mizak F 40 F4049 Corvallis OR 31:19.8 31:02.1 10:00 8 109 21
3 44 11 Kathie Bergsma F 45 F4049 Albany OR 34:42.5 34:27.5 11:06 15 109 21
4 56 181 Robin McKelvey F 44 F4049 Corvallis OR 37:53.1 37:34.6 12:06 21 109 21
5 60 78 Tina Longballa F 47 F4049 Corvallis OR 38:19.2 38:17.0 12:20 25 109 21
6 61 31 Jennifer Christy F 43 F4049 Albany OR 38:19.6 38:17.4 12:20 26 109 21
7 78 130 Karyn Stanley F 41 F4049 Philomath OR 43:32.2 43:20.6 13:58 38 109 21
8 96 69 Avril Koehler F 40 F4049 Albany OR 48:02.7 47:51.1 15:25 53 109 21
9 97 94 Shannon Murphy F 46 F4049 Corvallis OR 48:51.5 48:12.6 15:32 54 109 21
10 108 27 Elizabeth Chavez F 40 F4049 Silverton OR 50:48.9 50:00.1 16:06 62 109 21
11 114 117 Charmin Sagert F 48 F4049 Corvallis OR 52:52.6 52:32.4 16:55 66 109 21
12 117 17 Rachael Brown F 47 F4049 Philomath OR 53:01.3 52:41.8 16:58 68 109 21
13 139 10 Jean Benson F 49 F4049 Corvallis OR 59:04.3 58:28.3 18:50 82 109 21
14 141 39 Allison Evans F 43 F4049 Corvallis OR 59:34.5 58:55.9 18:59 83 109 21
15 145 169 Shannon Hopson F 48 F4049 Corvallis OR 59:30.3 59:06.2 19:02 85 109 21
16 149 140 Mindy Taylor F 41 F4049 Corvallis OR 1:01:19.4 1:00:45.7 19:34 88 109 21
17 154 3 Dana Anderson F 41 F4049 Albany OR 1:04:14.9 1:03:48.1 20:33 93 109 21
18 157 50 Holly Hanke F 43 F4049 Corvallis OR 1:06:22.0 1:06:01.0 21:15 95 109 21
19 159 206 Robin McKelvey F 44 F4049 Corvallis OR 1:10:23.6 1:09:46.9 22:28 96 109 21
20 162 49 Emily Glick F 41 F4049 Corvallis OR 1:10:34.7 1:10:34.7 22:43 97 109 21

Division Results for the F5059

Sort by  Gun Time Net Time
Div Place Place Bib First Last Sex Age Div City State Gun
Time
Net
Time
Pace Sex
Place
Sex
Total
Div
Total
1 25 20 Aj Campbell F 58 F5059 Corvallis OR 28:54.1 28:47.6 9:17 4 109 18
2 36 110 Maureen Puettmann F 55 F5059 Corvallis OR 32:19.1 32:06.0 10:20 11 109 18
3 38 173 Weny Osen F 58 F5059 Corvallis OR 32:54.4 32:45.9 10:33 12 109 18
4 46 161 Judy Whittaker F 55 F5059 Albany OR 34:59.2 34:48.5 11:13 16 109 18
5 49 204 Julie Iverson F 54 F5059 Seattle WA 36:37.3 36:04.8 11:37 18 109 18
6 62 153 Mary Van Orden F 56 F5059 Eugene OR 38:39.4 38:25.6 12:23 27 109 18
7 77 175 Renee Del Rio F 52 F5059 Albany OR 43:20.4 42:51.1 13:48 37 109 18
8 84 61 Diana Johnson F 50 F5059 Corvallis OR 44:34.1 44:29.0 14:20 44 109 18
9 85 63 Lynne Kane F 56 F5059 Corvallis OR 45:17.0 44:57.6 14:29 45 109 18
10 90 72 Janel Lawrence F 50 F5059 Philomath OR 46:36.7 46:22.1 14:56 48 109 18
11 111 98 Christi Oakerman F 53 F5059 Harrisburg OR 52:31.0 52:20.3 16:51 64 109 18
12 113 25 Lee Chamberlain F 55 F5059 Corvallis OR 52:43.9 52:32.3 16:55 65 109 18
13 126 172 Darla Wicke F 55 F5059 Albany OR 56:09.8 55:46.5 17:58 74 109 18
14 127 74 Tammy Lewis F 54 F5059 Halsey OR 56:10.2 55:46.9 17:58 75 109 18
15 129 146 Donna Tombers F 54 F5059 Corvallis OR 57:06.3 57:06.3 18:23 76 109 18
16 130 13 Kimi Berry F 59 F5059 Corvallis OR 57:41.7 57:08.2 18:24 77 109 18

Division Results for the F6069

Sort by  Gun Time Net Time
Div Place Place Bib First Last Sex Age Div City State Gun
Time
Net
Time
Pace Sex
Place
Sex
Total
Div
Total
1 35 83 Marla McKee F 65 F6069 Albany OR 32:10.9 32:04.2 10:20 10 109 5
2 95 52 Charlene Hendricks F 64 F6069 Philomath OR 48:03.1 47:50.9 15:25 52 109 5
3 104 104 Lisa Oken F 60 F6069 Corvallis OR 50:07.2 49:46.0 16:02 59 109 5
4 116 34 Barbara Davis F 69 F6069 Philomath OR 53:01.5 52:36.3 16:56 67 109 5

Division Results for the F7099

Sort by  Gun Time Net Time
Div Place Place Bib First Last Sex Age Div City State Gun
Time
Net
Time
Pace Sex
Place
Sex
Total
Div
Total
1 43 45 Becky Garrett F 71 F7099 Corvallis OR 34:26.5 34:20.0 11:04 14 109 3
2 66 38 Dianna Esslinger F 70 F7099 Corvallis OR 41:00.1 40:31.5 13:03 29 109 3
3 103 88 Marilyn Miller F 70 F7099 Eugene OR 49:56.6 49:40.6 16:00 58 109 3

Division Results for the M0113

Sort by  Gun Time Net Time
Div Place Place Bib First Last Sex Age Div City State Gun
Time
Net
Time
Pace Sex
Place
Sex
Total
Div
Total
1 8 91 Conway Montgomery M 11 M0113 Albany OR 23:27.7 23:27.3 7:33 8 80 21
2 11 6 Gabe Arredondo M 13 M0113 Adair Village OR 24:20.7 24:20.6 7:51 10 80 21
3 13 127 Jackson Smith M 13 M0113 Corvallis OR 24:35.1 24:35.0 7:55 12 80 21
4 24 100 Justin Oberfoell M 12 M0113 Albany OR 28:36.9 28:35.3 9:13 21 80 21
5 37 138 Coleman Taylor M 9 M0113 Corvallis OR 32:34.9 32:28.0 10:27 26 80 21
6 40 33 Brendan Coogan M 7 M0113 Corvallis OR 33:27.9 33:12.5 10:42 28 80 21
7 42 48 Oakley Glenn M 8 M0113 Albany OR 34:34.2 34:18.4 11:03 29 80 21
8 51 121 Ireland Schutz M 13 M0113 Corvallis OR 36:43.6 36:37.6 11:48 32 80 21
9 52 70 Garrett Koehler M 10 M0113 Albany OR 36:53.0 36:38.9 11:48 33 80 21
10 65 139 Jackson Taylor M 11 M0113 Corvallis OR 40:32.0 40:24.6 13:01 37 80 21
11 86 29 Oliver Chavez M 6 M0113 Silverton OR 45:57.3 45:07.8 14:32 41 80 21
12 109 143 Johnell Thomas M 9 M0113 Tangent OR 50:38.5 50:34.8 16:17 47 80 21
13 112 118 Zakary Sagert M 7 M0113 Corvallis OR 52:50.6 52:30.2 16:54 48 80 21
14 122 80 Jax Marsh M 9 M0113 Tangent OR 53:49.6 53:46.8 17:19 51 80 21
15 131 82 Enzo Martinez M 4 M0113 Albany OR 57:35.3 57:13.5 18:26 54 80 21
16 144 170 Zachary Hopson M 5 M0113 Corvallis OR 59:27.8 59:03.9 19:01 60 80 21
17 146 171 Finnesan Hopson M 8 M0113 Corvallis OR 59:29.6 59:06.4 19:02 61 80 21
18 156 119 Jackson Sagert-Hanke M 5 M0113 Corvallis OR 1:06:21.9 1:06:00.9 21:15 62 80 21

Division Results for the M1419

Sort by  Gun Time Net Time
Div Place Place Bib First Last Sex Age Div City State Gun
Time
Net
Time
Pace Sex
Place
Sex
Total
Div
Total
1 1 84 Karl Mellinger M 15 M1419 Corvallis OR 21:30.3 21:26.1 6:54 1 80 4
2 3 124 Ayden Shonk M 18 M1419 Albany OR 21:49.7 21:46.8 7:01 3 80 4
3 7 8 Neal Alsharif M 16 M1419 Corvallis OR 23:27.3 23:23.1 7:32 7 80 4

Division Results for the M2029

Sort by  Gun Time Net Time
Div Place Place Bib First Last Sex Age Div City State Gun
Time
Net
Time
Pace Sex
Place
Sex
Total
Div
Total
1 12 163 Harrison Williams M 25 M2029 Corvallis OR 24:43.6 24:29.7 7:54 11 80 9
2 16 81 Abiezer Martinez M 25 M2029 Albany OR 26:34.5 26:13.0 8:27 15 80 9
3 22 113 Tyler Read M 28 M2029 Corvallis OR 28:17.7 28:08.3 9:04 20 80 9
4 30 135 Brandon Sullivan M 27 M2029 Corvallis OR 30:35.4 30:30.1 9:50 23 80 9
5 39 15 Daniel Breysse M 25 M2029 Corvallis OR 32:55.6 32:51.1 10:35 27 80 9
6 69 5 Hector Ariceaga M 29 M2029 Lebanon OR 41:14.3 40:49.4 13:09 38 80 9
7 125 103 Derek Ohlhausen M 27 M2029 Corvallis OR 54:52.2 54:44.1 17:38 52 80 9
8 143 4 Carlos Andrade M 27 M2029 Corvallis OR 59:47.4 59:01.0 19:00 59 80 9

Division Results for the M3039

Sort by  Gun Time Net Time
Div Place Place Bib First Last Sex Age Div City State Gun
Time
Net
Time
Pace Sex
Place
Sex
Total
Div
Total
1 2 58 Paul Jaques M 33 M3039 Philomath OR 21:47.9 21:38.1 6:58 2 80 12
2 14 35 Brandon Dean M 35 M3039 Corvallis OR 24:59.7 24:50.0 8:00 13 80 12
3 45 77 Trevor Lincoln M 35 M3039 Lebanon OR 35:14.5 34:44.2 11:11 30 80 12
4 54 43 Eric Fillmore M 36 M3039 Albany OR 37:55.7 37:07.0 11:57 35 80 12
5 70 87 Joseph Miller M 32 M3039 Albany OR 41:01.1 40:52.8 13:10 39 80 12
6 91 42 Ted Farrington M 31 M3039 Philomath OR 47:27.9 46:46.5 15:04 43 80 12
7 101 102 Silas Ohlgren M 33 M3039 Philomath OR 48:56.5 48:39.9 15:40 45 80 12
8 134 108 Jed Powell M 38 M3039 Corvallis OR 58:03.6 57:25.3 18:29 55 80 12
9 137 47 Mr Giles M 39 M3039 Corvallis OR 58:57.5 58:11.7 18:44 56 80 12

Division Results for the M4049

Sort by  Gun Time Net Time
Div Place Place Bib First Last Sex Age Div City State Gun
Time
Net
Time
Pace Sex
Place
Sex
Total
Div
Total
1 5 205 Anthony Franklin M 46 M4049 Corvallis OR 22:35.1 22:31.6 7:16 5 80 13
2 10 147 Caleb Towne M 42 M4049 Corvallis OR 24:25.1 24:19.9 7:50 9 80 13
3 15 126 Bruce Smith M 49 M4049 Corvallis OR 25:05.6 25:04.3 8:05 14 80 13
4 17 60 Ryan Johanson M 43 M4049 Corvallis OR 26:43.5 26:38.1 8:35 16 80 13
5 20 176 Eric Heyliger M 44 M4049 Albany OR 28:04.6 27:36.5 8:54 18 80 13
6 28 156 Nate Wagner M 43 M4049 Corvallis OR 29:05.1 29:04.2 9:22 22 80 13
7 76 132 Richard Stanley M 43 M4049 Philomath OR 42:08.7 41:56.1 13:30 40 80 13
8 87 28 J.P. Chavez M 40 M4049 Silverton OR 45:59.7 45:10.4 14:33 42 80 13
9 140 40 Jonathan Evans M 43 M4049 Corvallis OR 59:32.6 58:53.0 18:58 58 80 13
10 158 209 Sean Franklin M 44 M4049 Corvallis OR 1:10:23.5 1:09:46.3 22:28 63 80 13
11 160 208 Neil Franklin M 44 M4049 Corvallis OR 1:10:24.6 1:09:47.7 22:28 64 80 13
12 161 207 Robert Franklin M 42 M4049 Corvallis OR 1:10:23.2 1:09:48.6 22:29 65 80 13

Division Results for the M5059

Sort by  Gun Time Net Time
Div Place Place Bib First Last Sex Age Div City State Gun
Time
Net
Time
Pace Sex
Place
Sex
Total
Div
Total
1 4 101 Shawn O'Donnell M 51 M5059 Albany OR 22:11.1 22:08.2 7:08 4 80 11
2 19 185 Dan Barrett M 53 M5059 Corvallis OR 28:06.9 27:15.2 8:47 17 80 11
3 21 37 Peter Eschbach M 56 M5059 Covallis OR 27:50.3 27:47.2 8:57 19 80 11
4 33 201 Trevor Oakerman M 53 M5059 Harrisburg OR 31:37.2 31:27.8 10:08 24 80 11
5 98 93 John Murphy M 59 M5059 Corvallis OR 48:50.7 48:13.3 15:32 44 80 11
6 115 24 Jaime Chamberlain M 54 M5059 Corvallis OR 52:45.2 52:33.6 16:56 49 80 11
7 118 16 Jeff Brown M 52 M5059 Philomath OR 53:03.1 52:44.0 16:59 50 80 11
8 128 65 Edward Kelly M 56 M5059 Corvallis OR 57:02.5 56:29.2 18:11 53 80 11
9 138 9 Bob Benson M 59 M5059 Corvallis OR 59:04.6 58:26.6 18:49 57 80 11

Division Results for the M6069

Sort by  Gun Time Net Time
Div Place Place Bib First Last Sex Age Div City State Gun
Time
Net
Time
Pace Sex
Place
Sex
Total
Div
Total
1 6 203 Phil Anderson M 67 M6069 Portland OR 23:13.0 23:12.2 7:29 6 80 6
2 34 174 Mike Anderson M 69 M6069 Corvallis OR 31:55.3 31:46.9 10:14 25 80 6
3 48 18 Tony Cadena M 64 M6069 Corvallis OR 36:20.3 35:38.2 11:29 31 80 6
4 53 53 Craig Hendricks M 67 M6069 Philomath OR 36:55.8 36:42.7 11:49 34 80 6
5 64 7 Steve Athay M 69 M6069 Corvallis OR 39:12.1 38:59.2 12:33 36 80 6

Division Results for the M7099

Sort by  Gun Time Net Time
Div Place Place Bib First Last Sex Age Div City State Gun
Time
Net
Time
Pace Sex
Place
Sex
Total
Div
Total
1 106 85 Don Miller M 72 M7099 Eugene OR 50:04.0 49:47.0 16:02 46 80 1